Trout Lake, MI (49793)

1:35 PM EST on February 23, 2017 (GMT -0500)
GarLyn Zoo | | Change Station

Elev 584 ft 46.09 °N, 85.32 °W | Updated 18 seconds ago

Overcast
Overcast
37.6 °F
Feels Like 32 °F
N
7.8
Wind Variable Wind from NNW

Today
High -- | Low -- °F
--% Chance of Precip.
Yesterday
High -- | Low -- °F
Precip. -- in
Pressure 29.81 in
Visibility 10.0 miles
Clouds Overcast 2400 ft
Windchill 32 °F
Dew Point 31 °F
Humidity 77%
Rainfall 0.23 in
Snow Depth Not available.
7:29 AM 6:18 PM
Waning Crescent, 9% visible
METAR KERY 231815Z AUTO 33011G19KT 10SM OVC024 01/M04 A2981 RMK AO2 T00101036
Pressure 29.81 in
Visibility 10.0 miles
Clouds Overcast 2400 ft
Windchill 32 °F
Dew Point 31 °F
Humidity 77%
Rainfall 0.23 in
Snow Depth Not available.
7:29 AM 6:18 PM
Waning Crescent, 9% visible
METAR KERY 231815Z AUTO 33011G19KT 10SM OVC024 01/M04 A2981 RMK AO2 T00101036

Get Your Daily Forecast Email!

Thanks for signing up!

Be on the lookout for a verification email in your inbox.

You'll start receiving the daily forecast at 8 AM.

×

10-Day Weather Forecast

Almanac

Astronomy

Feb. 23, 2017 Rise Set
Actual Time
Civil Twilight
Nautical Twilight
Astronomical Twilight
Moon
Length of Visible Light
Length of Day
Tomorrow will be .
, % of the Moon is Illuminated

Today's Extremes

State Highs State Lows

Community

WunderPhotos

Upload Photos

1,962,540 photos uploaded!

WunderBlog® & News

Nearby

Air Quality

  Air Quality AQ Index Pollutant
Not available.

Snow Depth

Station Depth Elevation

Earthquake Activity

City Distance Mag. Time & Date
Minimum magnitude displayed is 2.5.

Coastal Water Temperatures

Place Temperature

Stations

Nearby Weather Stations

Station Location Temp. Windchill Dew Point Humidity Wind Precip. Elev Updated Type
                   

Watches & Warnings

There are currently no watches in effect.